Sandspit, Canada
Current Conditions -  °F | °C
As of 12:00 AM on Saturday 25 Oct 2014 (Local Time) from CYZP Reporting Station
Overcast Overcast  
Wind Chill: 41°   Ceiling: 16000
Heat Index: 46°   Visibility: 9mi
Dew Point: 43°   Wind: 12mph
Humidity: 87%   Direction: 150°SSE
Pressure: 29.74"   Gusts: NA
Location:  53.25°N, 131.82°W
Report Text: CYZP 250700Z AUTO 15010KT 9SM OVC160 08/06 A2974 RMK SLP071
Loading
Personal Weather Stations






























Interactive Weather Map
Tropical Storm Tracking
New forecast layout! Learn more

10-Day Weather Forecast

Advertisements
Track Severe Weather on mobile